createdAt,value
2023-01-11T00:01:02.037Z,6.00
2023-01-11T00:03:36.612Z,5.90
2023-01-11T00:06:08.406Z,6.00
2023-01-11T00:08:39.264Z,6.10
2023-01-11T00:11:15.712Z,5.90
2023-01-11T00:13:49.010Z,5.90
2023-01-11T00:16:17.326Z,6.00
2023-01-11T00:18:44.915Z,5.80
2023-01-11T00:21:12.210Z,6.00
2023-01-11T00:23:41.213Z,5.80
2023-01-11T00:26:15.201Z,5.90
2023-01-11T00:28:44.153Z,6.00
2023-01-11T00:31:12.498Z,5.80
2023-01-11T00:33:39.644Z,5.80
2023-01-11T00:36:07.190Z,5.90
2023-01-11T00:42:12.298Z,5.70
2023-01-11T00:45:05.474Z,5.50
2023-01-11T00:47:53.794Z,5.80
2023-01-11T00:50:21.095Z,5.80
2023-01-11T00:52:55.151Z,5.70
2023-01-11T00:55:22.724Z,5.80
2023-01-11T00:57:50.271Z,5.80
2023-01-11T01:00:18.496Z,5.90
2023-01-11T01:02:48.680Z,5.80
2023-01-11T01:05:16.840Z,5.80
2023-01-11T01:07:44.714Z,5.80
2023-01-11T01:10:14.758Z,5.90
2023-01-11T01:13:04.804Z,5.90
2023-01-11T01:15:32.890Z,5.90
2023-01-11T01:18:03.253Z,5.90
2023-01-11T01:20:31.899Z,5.90
2023-01-11T01:22:59.199Z,5.40
2023-01-11T01:25:32.067Z,5.30
2023-01-11T01:28:02.170Z,5.50
2023-01-11T01:30:40.455Z,5.70
2023-01-11T01:33:07.693Z,5.50
2023-01-11T01:35:38.654Z,5.10
2023-01-11T01:38:07.938Z,5.30
2023-01-11T01:40:44.712Z,5.40
2023-01-11T01:43:17.989Z,5.20
2023-01-11T01:45:53.318Z,5.10
2023-01-11T01:48:23.686Z,5.40
2023-01-11T01:50:58.050Z,5.20
2023-01-11T01:53:36.070Z,5.10
2023-01-11T01:56:34.431Z,4.80
2023-01-11T01:59:09.201Z,5.10
2023-01-11T02:01:48.456Z,5.20
2023-01-11T02:04:26.094Z,5.40
2023-01-11T02:07:14.934Z,5.60
2023-01-11T02:09:51.063Z,5.60
2023-01-11T02:12:19.110Z,5.60
2023-01-11T02:14:47.947Z,5.50
2023-01-11T02:17:15.302Z,5.60
2023-01-11T02:20:01.356Z,5.60
2023-01-11T02:22:50.196Z,5.60
2023-01-11T02:25:32.560Z,5.70
2023-01-11T02:28:20.652Z,5.60
2023-01-11T02:31:21.974Z,5.90
2023-01-11T02:34:01.118Z,5.90
2023-01-11T02:36:40.192Z,5.80
2023-01-11T02:39:44.458Z,5.40
2023-01-11T02:42:51.945Z,5.20
2023-01-11T02:45:50.336Z,5.00
2023-01-11T02:48:56.133Z,4.90
2023-01-11T02:51:34.291Z,5.10
2023-01-11T02:54:10.123Z,5.00
2023-01-11T02:56:44.443Z,4.90
2023-01-11T02:59:17.787Z,5.00
2023-01-11T03:01:51.142Z,4.90
2023-01-11T03:04:37.947Z,4.90
2023-01-11T03:07:08.057Z,4.70
2023-01-11T03:09:53.854Z,4.80
2023-01-11T03:12:55.134Z,4.90
2023-01-11T03:15:34.881Z,5.00
2023-01-11T03:18:24.273Z,5.20
2023-01-11T03:21:04.393Z,5.30
2023-01-11T03:23:46.613Z,5.20
2023-01-11T03:26:41.560Z,4.90
2023-01-11T03:29:13.026Z,4.80
2023-01-11T03:31:53.552Z,4.80
2023-01-11T03:34:26.642Z,4.80
2023-01-11T03:37:01.288Z,4.80
2023-01-11T03:39:46.993Z,4.90
2023-01-11T03:42:21.450Z,5.10
2023-01-11T03:44:55.274Z,5.10
2023-01-11T03:47:26.048Z,5.10
2023-01-11T03:49:59.000Z,5.20
2023-01-11T03:52:32.005Z,5.30
2023-01-11T03:55:01.063Z,5.40
2023-01-11T03:57:39.643Z,5.40
2023-01-11T04:00:09.072Z,5.40
2023-01-11T04:02:42.520Z,5.40
2023-01-11T04:05:10.940Z,5.30
2023-01-11T04:07:38.626Z,5.20
2023-01-11T04:10:06.573Z,5.30
2023-01-11T04:12:36.736Z,5.30
2023-01-11T04:15:10.576Z,5.30
2023-01-11T04:17:46.024Z,5.30
2023-01-11T04:20:16.052Z,5.20
2023-01-11T04:22:43.591Z,5.00
2023-01-11T04:25:18.028Z,4.80
2023-01-11T04:27:45.385Z,5.00
2023-01-11T04:30:15.797Z,5.10
2023-01-11T04:32:43.078Z,5.10
2023-01-11T04:35:10.352Z,5.10
2023-01-11T04:37:37.621Z,4.90
2023-01-11T04:40:05.303Z,5.00
2023-01-11T04:42:34.504Z,4.90
2023-01-11T04:45:05.464Z,5.10
2023-01-11T04:47:33.252Z,5.20
2023-01-11T04:50:00.511Z,5.10
2023-01-11T04:52:27.750Z,5.20
2023-01-11T04:55:05.641Z,5.30
2023-01-11T04:57:41.282Z,5.20
2023-01-11T05:00:11.012Z,5.20
2023-01-11T05:02:41.595Z,5.20
2023-01-11T05:05:10.187Z,5.10
2023-01-11T05:07:41.488Z,5.10
2023-01-11T05:10:11.437Z,5.30
2023-01-11T05:12:41.889Z,5.40
2023-01-11T05:15:09.414Z,5.20
2023-01-11T05:17:39.123Z,5.00
2023-01-11T05:20:10.246Z,4.90
2023-01-11T05:22:37.608Z,4.60
2023-01-11T05:25:05.196Z,4.60
2023-01-11T05:27:37.180Z,4.80
2023-01-11T05:30:12.153Z,4.80
2023-01-11T05:32:41.474Z,5.00
2023-01-11T05:35:11.528Z,5.10
2023-01-11T05:37:47.695Z,5.20
2023-01-11T05:40:14.928Z,5.20
2023-01-11T05:42:42.012Z,5.20
2023-01-11T05:45:28.557Z,5.20
2023-01-11T05:47:55.920Z,5.10
2023-01-11T05:50:25.912Z,5.20
2023-01-11T05:52:53.301Z,5.20
2023-01-11T05:55:23.344Z,5.20
2023-01-11T05:57:51.218Z,5.20
2023-01-11T06:00:21.215Z,5.10
2023-01-11T06:02:51.579Z,5.00
2023-01-11T06:05:18.949Z,5.00
2023-01-11T06:07:49.492Z,5.00
2023-01-11T06:10:16.854Z,5.00
2023-01-11T06:12:44.034Z,5.10
2023-01-11T06:15:11.663Z,5.10
2023-01-11T06:17:41.127Z,5.20
2023-01-11T06:20:10.672Z,5.10
2023-01-11T06:22:38.145Z,5.10
2023-01-11T06:25:05.991Z,5.20
2023-01-11T06:27:36.383Z,5.30
2023-01-11T06:30:06.990Z,5.10
2023-01-11T06:32:34.247Z,5.00
2023-01-11T06:35:07.213Z,5.10
2023-01-11T06:37:40.045Z,5.20
2023-01-11T06:40:07.774Z,4.90
2023-01-11T06:42:35.173Z,5.10
2023-01-11T06:45:06.150Z,5.30
2023-01-11T06:47:33.477Z,5.30
2023-01-11T06:50:05.786Z,5.50
2023-01-11T06:52:33.283Z,5.60
2023-01-11T06:55:00.619Z,5.50
2023-01-11T07:00:46.032Z,5.60
2023-01-11T07:03:21.857Z,5.70
2023-01-11T07:05:52.344Z,5.50
2023-01-11T07:08:25.228Z,5.40
2023-01-11T07:11:00.399Z,5.30
2023-01-11T07:13:27.938Z,5.30
2023-01-11T07:15:58.047Z,5.40
2023-01-11T07:18:25.606Z,5.50
2023-01-11T07:20:57.211Z,5.50
2023-01-11T07:23:24.355Z,5.60
2023-01-11T07:25:59.787Z,5.70
2023-01-11T07:28:30.944Z,5.90
2023-01-11T07:31:02.060Z,6.00
2023-01-11T07:33:29.441Z,6.00
2023-01-11T07:36:01.296Z,6.20
2023-01-11T07:38:32.559Z,6.10
2023-01-11T07:41:25.544Z,6.20
2023-01-11T07:44:00.736Z,6.30
2023-01-11T07:46:31.134Z,6.10
2023-01-11T07:49:00.961Z,6.00
2023-01-11T07:51:28.933Z,6.00
2023-01-11T07:54:02.673Z,6.00
2023-01-11T07:56:37.303Z,6.20
2023-01-11T07:59:07.472Z,6.10
2023-01-11T08:01:35.965Z,6.30
2023-01-11T08:04:21.653Z,6.30
2023-01-11T08:06:48.940Z,6.20
2023-01-11T08:09:16.152Z,6.20
2023-01-11T08:12:04.474Z,6.20
2023-01-11T08:14:46.334Z,6.30
2023-01-11T08:17:16.892Z,6.50
2023-01-11T08:19:44.420Z,6.70
2023-01-11T08:22:13.841Z,6.60
2023-01-11T08:24:43.335Z,6.70
2023-01-11T08:27:19.134Z,6.90
2023-01-11T08:29:53.785Z,7.10
2023-01-11T08:32:32.941Z,6.90
2023-01-11T08:53:08.202Z,7.50
2023-01-11T08:56:00.428Z,7.70
2023-01-11T08:59:15.340Z,7.60
2023-01-11T09:01:47.370Z,7.70
2023-01-11T09:07:46.146Z,8.00
2023-01-11T09:10:21.866Z,8.10
2023-01-11T09:13:34.768Z,8.10
2023-01-11T09:16:11.282Z,8.20
2023-01-11T09:18:41.268Z,8.20
2023-01-11T09:21:21.166Z,8.40
2023-01-11T09:23:54.215Z,8.40
2023-01-11T09:26:29.765Z,8.40
2023-01-11T09:29:04.342Z,8.50
2023-01-11T09:31:34.755Z,8.70
2023-01-11T09:34:05.516Z,8.80
2023-01-11T09:36:36.092Z,8.80
2023-01-11T09:39:08.527Z,8.80
2023-01-11T09:41:45.021Z,8.70
2023-01-11T09:44:21.459Z,8.50
2023-01-11T09:46:56.177Z,8.70
2023-01-11T09:49:28.482Z,8.90
2023-01-11T09:52:13.813Z,9.00
2023-01-11T09:54:43.360Z,8.60
2023-01-11T09:57:50.379Z,8.60
2023-01-11T10:01:01.548Z,8.60
2023-01-11T10:03:54.707Z,8.50
2023-01-11T10:06:42.451Z,8.40
2023-01-11T10:18:25.785Z,8.50
2023-01-11T10:19:25.605Z,8.20
2023-01-11T10:22:04.075Z,8.30
2023-01-11T10:25:06.613Z,8.50
2023-01-11T10:27:41.747Z,8.50
2023-01-11T10:30:32.283Z,8.50
2023-01-11T10:33:38.028Z,8.60
2023-01-11T10:36:53.351Z,8.60
2023-01-11T10:39:50.100Z,8.70
2023-01-11T10:42:22.138Z,8.60
2023-01-11T10:45:21.107Z,8.50
2023-01-11T10:48:02.909Z,8.80
2023-01-11T10:50:48.288Z,8.70
2023-01-11T10:53:26.550Z,9.00
2023-01-11T10:56:14.037Z,9.30
2023-01-11T10:59:08.062Z,10.00
2023-01-11T11:01:54.680Z,10.60
2023-01-11T11:04:34.352Z,10.50
2023-01-11T11:07:13.936Z,10.20
2023-01-11T11:10:10.148Z,10.20
2023-01-11T11:12:41.947Z,10.10
2023-01-11T11:15:21.875Z,9.90
2023-01-11T11:17:54.008Z,9.90
2023-01-11T11:20:29.448Z,9.90
2023-01-11T11:22:57.656Z,9.90
2023-01-11T11:25:42.037Z,9.80
2023-01-11T11:28:28.855Z,9.90
2023-01-11T11:31:05.423Z,10.20
2023-01-11T11:33:38.899Z,10.50
2023-01-11T11:36:12.478Z,10.60
2023-01-11T11:39:05.776Z,10.80
2023-01-11T11:41:50.280Z,10.90
2023-01-11T11:44:24.601Z,11.00
2023-01-11T11:47:05.913Z,10.50
2023-01-11T11:49:37.115Z,10.50
2023-01-11T11:52:06.738Z,10.90
2023-01-11T11:54:41.953Z,11.10
2023-01-11T11:57:29.117Z,11.10
2023-01-11T12:00:09.378Z,10.90
2023-01-11T12:02:40.323Z,11.00
2023-01-11T12:05:10.268Z,10.70
2023-01-11T12:07:54.371Z,10.40
2023-01-11T12:10:30.222Z,10.40
2023-01-11T12:13:06.118Z,10.30
2023-01-11T12:15:37.737Z,10.40
2023-01-11T12:18:26.830Z,10.00
2023-01-11T12:20:55.291Z,9.70
2023-01-11T12:23:27.113Z,9.20
2023-01-11T12:26:25.825Z,9.50
2023-01-11T12:29:15.044Z,9.60
2023-01-11T12:32:28.197Z,9.30
2023-01-11T12:35:01.340Z,9.20
2023-01-11T12:37:53.586Z,9.60
2023-01-11T12:41:08.831Z,9.90
2023-01-11T12:43:42.078Z,9.80
2023-01-11T12:46:42.853Z,9.30
2023-01-11T12:49:28.401Z,9.30
2023-01-11T12:52:35.984Z,9.40
2023-01-11T12:55:36.881Z,9.30
2023-01-11T12:58:08.867Z,10.20
2023-01-11T13:01:18.263Z,9.70
2023-01-11T13:04:03.735Z,9.60
2023-01-11T13:06:56.946Z,9.30
2023-01-11T13:09:39.537Z,9.20
2023-01-11T13:12:19.043Z,9.60
2023-01-11T13:14:55.386Z,9.80
2023-01-11T13:17:51.922Z,9.90
2023-01-11T13:20:48.694Z,9.90
2023-01-11T13:23:49.688Z,9.90
2023-01-11T13:26:19.421Z,10.00
2023-01-11T13:29:01.909Z,10.00
2023-01-11T13:31:31.932Z,10.00
2023-01-11T13:34:10.703Z,9.90
2023-01-11T13:36:43.324Z,9.40
2023-01-11T13:39:28.768Z,9.10
2023-01-11T13:42:04.654Z,9.30
2023-01-11T13:44:37.276Z,9.40
2023-01-11T13:47:38.407Z,9.00
2023-01-11T13:50:19.541Z,9.00
2023-01-11T13:53:07.102Z,9.10
2023-01-11T13:55:40.598Z,9.00
2023-01-11T13:58:30.961Z,8.90
2023-01-11T14:01:00.800Z,9.10
2023-01-11T14:03:43.969Z,9.40
2023-01-11T14:06:42.490Z,9.20
2023-01-11T14:09:34.189Z,9.10
2023-01-11T14:12:10.810Z,9.00
2023-01-11T14:15:02.759Z,9.00
2023-01-11T14:18:09.452Z,8.50
2023-01-11T14:21:04.454Z,8.40
2023-01-11T14:23:45.461Z,8.50
2023-01-11T14:26:48.101Z,8.20
2023-01-11T14:29:23.616Z,8.10
2023-01-11T14:32:28.784Z,7.90
2023-01-11T14:35:33.642Z,7.80
2023-01-11T14:38:22.626Z,7.70
2023-01-11T14:41:11.049Z,7.60
2023-01-11T14:43:41.298Z,7.60
2023-01-11T14:46:28.506Z,7.50
2023-01-11T14:49:20.771Z,7.40
2023-01-11T14:52:04.197Z,7.30
2023-01-11T14:54:41.501Z,7.20
2023-01-11T14:57:37.505Z,7.20
2023-01-11T15:00:24.779Z,7.00
2023-01-11T15:02:54.487Z,7.00
2023-01-11T15:05:33.650Z,6.90
2023-01-11T15:08:15.995Z,7.10
2023-01-11T15:11:02.322Z,7.10
2023-01-11T15:13:49.560Z,6.90
2023-01-11T15:16:56.307Z,6.80
2023-01-11T15:19:26.223Z,6.90
2023-01-11T15:21:55.963Z,6.90
2023-01-11T15:24:28.214Z,6.80
2023-01-11T15:26:58.181Z,6.70
2023-01-11T15:29:28.523Z,6.70
2023-01-11T15:32:01.905Z,6.70
2023-01-11T15:34:45.105Z,6.70
2023-01-11T15:37:31.436Z,6.70
2023-01-11T15:40:02.435Z,6.70
2023-01-11T15:43:07.611Z,6.70
2023-01-11T15:46:22.476Z,6.70
2023-01-11T15:49:09.859Z,6.70
2023-01-11T15:51:49.071Z,6.70
2023-01-11T15:54:25.859Z,7.00
2023-01-11T15:57:12.353Z,7.20
2023-01-11T15:59:58.376Z,6.90
2023-01-11T16:02:42.168Z,6.80
2023-01-11T16:05:20.952Z,6.80
2023-01-11T16:08:15.473Z,6.70
2023-01-11T16:10:57.405Z,6.80
2023-01-11T16:13:49.033Z,6.80
2023-01-11T16:16:23.694Z,6.80
2023-01-11T16:18:55.712Z,6.80
2023-01-11T16:21:38.575Z,6.80
2023-01-11T16:24:29.674Z,6.80
2023-01-11T16:27:00.469Z,6.70
2023-01-11T16:29:37.782Z,6.70
2023-01-11T16:32:29.690Z,6.70
2023-01-11T16:34:57.147Z,6.70
2023-01-11T16:37:43.812Z,6.60
2023-01-11T16:40:11.365Z,6.60
2023-01-11T16:42:48.525Z,6.50
2023-01-11T16:45:22.916Z,6.60
2023-01-11T16:48:24.516Z,6.50
2023-01-11T16:50:58.281Z,6.50
2023-01-11T16:53:27.517Z,6.40
2023-01-11T16:56:06.534Z,6.40
2023-01-11T16:58:39.386Z,6.50
2023-01-11T17:01:13.524Z,6.50
2023-01-11T17:03:53.268Z,6.70
2023-01-11T17:06:25.293Z,7.00
2023-01-11T17:08:56.882Z,7.10
2023-01-11T17:11:37.357Z,7.00
2023-01-11T17:14:50.023Z,7.40
2023-01-11T17:17:19.886Z,7.10
2023-01-11T17:19:49.240Z,7.10
2023-01-11T17:22:36.337Z,7.30
2023-01-11T17:25:07.225Z,7.00
2023-01-11T17:27:40.742Z,7.10
2023-01-11T17:30:19.490Z,6.80
2023-01-11T17:32:49.113Z,6.80
2023-01-11T17:35:17.934Z,6.70
2023-01-11T17:37:47.865Z,6.60
2023-01-11T17:40:38.099Z,6.60
2023-01-11T17:43:44.722Z,6.60
2023-01-11T17:46:21.544Z,6.60
2023-01-11T17:48:55.100Z,6.60
2023-01-11T17:51:33.992Z,6.60
2023-01-11T17:54:01.308Z,6.50
2023-01-11T17:56:41.816Z,6.60
2023-01-11T17:59:12.082Z,6.50
2023-01-11T18:01:39.708Z,6.50
2023-01-11T18:04:20.949Z,6.50
2023-01-11T18:06:50.214Z,6.50
2023-01-11T18:09:29.231Z,6.40
2023-01-11T18:12:08.603Z,6.40
2023-01-11T18:14:42.224Z,6.40
2023-01-11T18:17:30.783Z,6.40
2023-01-11T18:19:58.753Z,6.30
2023-01-11T18:22:30.358Z,6.20
2023-01-11T18:24:59.836Z,6.20
2023-01-11T18:27:30.580Z,6.20
2023-01-11T18:30:06.347Z,6.20
2023-01-11T18:32:42.510Z,6.00
2023-01-11T18:35:20.282Z,6.00
2023-01-11T18:37:49.197Z,6.10
2023-01-11T18:40:18.973Z,6.10
2023-01-11T18:42:48.955Z,6.00
2023-01-11T18:45:18.423Z,6.00
2023-01-11T18:47:45.928Z,6.00
2023-01-11T18:50:14.092Z,5.90
2023-01-11T18:52:43.744Z,6.00
2023-01-11T18:55:12.522Z,5.90
2023-01-11T18:57:39.965Z,5.90
2023-01-11T19:00:15.985Z,5.90
2023-01-11T19:02:44.505Z,5.90
2023-01-11T19:05:14.468Z,5.90
2023-01-11T19:07:41.665Z,5.90
2023-01-11T19:10:10.954Z,5.80
2023-01-11T19:12:38.138Z,5.80
2023-01-11T19:15:08.871Z,5.90
2023-01-11T19:17:35.839Z,5.90
2023-01-11T19:20:03.584Z,5.90
2023-01-11T19:22:30.817Z,5.80
2023-01-11T19:24:58.031Z,5.80
2023-01-11T19:27:25.205Z,5.80
2023-01-11T19:29:53.992Z,5.80
2023-01-11T19:32:25.866Z,5.80
2023-01-11T19:34:55.755Z,5.90
2023-01-11T19:37:22.838Z,5.90
2023-01-11T19:39:49.953Z,5.90
2023-01-11T19:42:17.112Z,5.80
2023-01-11T19:44:44.418Z,5.80
2023-01-11T19:47:15.512Z,5.70
2023-01-11T19:49:44.127Z,5.70
2023-01-11T19:52:13.767Z,5.70
2023-01-11T19:54:45.141Z,5.80
2023-01-11T19:57:14.721Z,5.90
2023-01-11T19:59:42.641Z,6.00
2023-01-11T20:02:12.904Z,6.10
2023-01-11T20:04:41.007Z,6.10
2023-01-11T20:07:14.134Z,6.10
2023-01-11T20:09:41.671Z,5.80
2023-01-11T20:12:11.212Z,5.80
2023-01-11T20:14:40.804Z,5.80
2023-01-11T20:17:08.739Z,5.70
2023-01-11T20:19:36.448Z,5.80
2023-01-11T20:22:03.795Z,5.80
2023-01-11T20:24:31.073Z,5.80
2023-01-11T20:27:02.934Z,5.80
2023-01-11T20:29:30.572Z,5.90
2023-01-11T20:32:13.303Z,5.80
2023-01-11T20:34:45.956Z,5.90
2023-01-11T20:37:13.268Z,6.10
2023-01-11T20:39:40.670Z,6.40
2023-01-11T20:42:12.659Z,6.60
2023-01-11T20:44:40.251Z,6.40
2023-01-11T20:47:07.622Z,6.50
2023-01-11T20:49:37.743Z,6.60
2023-01-11T20:52:05.810Z,6.60
2023-01-11T20:54:33.509Z,6.60
2023-01-11T20:57:05.554Z,6.60
2023-01-11T20:59:33.544Z,6.60
2023-01-11T21:02:01.945Z,6.50
2023-01-11T21:04:29.897Z,6.40
2023-01-11T21:06:57.220Z,6.30
2023-01-11T21:09:24.546Z,6.30
2023-01-11T21:11:54.823Z,6.30
2023-01-11T21:14:23.275Z,6.30
2023-01-11T21:19:33.296Z,6.30
2023-01-11T21:22:00.798Z,6.20
2023-01-11T21:24:28.421Z,5.90
2023-01-11T21:26:57.465Z,6.00
2023-01-11T21:29:26.207Z,6.20
2023-01-11T21:31:53.691Z,6.30
2023-01-11T21:34:21.159Z,6.30
2023-01-11T21:36:51.518Z,6.10
2023-01-11T21:39:20.104Z,6.00
2023-01-11T21:42:00.066Z,6.20
2023-01-11T21:44:34.837Z,6.20
2023-01-11T21:47:06.505Z,6.00
2023-01-11T21:49:34.295Z,6.10
2023-01-11T21:52:04.324Z,6.00
2023-01-11T21:54:32.881Z,6.10
2023-01-11T21:57:02.975Z,6.00
2023-01-11T21:59:34.755Z,6.00
2023-01-11T22:02:02.015Z,6.10
2023-01-11T22:04:30.643Z,6.10
2023-01-11T22:07:00.280Z,6.10
2023-01-11T22:09:28.777Z,6.20
2023-01-11T22:11:56.249Z,6.30
2023-01-11T22:14:23.732Z,6.30
2023-01-11T22:16:51.365Z,6.20
2023-01-11T22:19:19.249Z,6.30
2023-01-11T22:21:46.793Z,6.20
2023-01-11T22:24:14.205Z,6.20
2023-01-11T22:26:41.656Z,6.10
2023-01-11T22:29:12.898Z,6.10
2023-01-11T22:31:55.196Z,6.10
2023-01-11T22:34:23.357Z,6.10
2023-01-11T22:36:50.835Z,6.10
2023-01-11T22:39:19.760Z,6.10
2023-01-11T22:41:48.789Z,6.00
2023-01-11T22:44:16.668Z,6.10
2023-01-11T22:46:44.830Z,5.60
2023-01-11T22:49:12.394Z,5.30
2023-01-11T22:51:44.174Z,5.20
2023-01-11T22:54:12.667Z,5.20
2023-01-11T22:56:40.306Z,5.30
2023-01-11T22:59:08.237Z,5.30
2023-01-11T23:01:38.079Z,5.20
2023-01-11T23:04:06.974Z,5.20
2023-01-11T23:06:38.655Z,5.20
2023-01-11T23:09:15.917Z,5.30
2023-01-11T23:12:03.043Z,5.30
2023-01-11T23:14:34.903Z,5.40
2023-01-11T23:17:07.322Z,5.50
2023-01-11T23:19:38.468Z,5.60
2023-01-11T23:22:07.211Z,5.60
2023-01-11T23:24:37.938Z,5.60
2023-01-11T23:27:06.009Z,5.70
2023-01-11T23:29:33.508Z,5.70
2023-01-11T23:32:00.863Z,5.70
2023-01-11T23:34:28.234Z,5.60
2023-01-11T23:36:55.808Z,5.70
2023-01-11T23:39:28.831Z,5.70
2023-01-11T23:42:14.495Z,5.90
2023-01-11T23:44:43.771Z,6.20
2023-01-11T23:47:21.277Z,6.10
2023-01-11T23:49:54.280Z,6.10
2023-01-11T23:52:33.181Z,6.20
2023-01-11T23:55:00.736Z,6.00
2023-01-11T23:57:28.196Z,5.90
2023-01-11T23:59:55.633Z,5.80
